createdAt,value
2017-09-03T08:51:11.693Z,58.80
2017-09-03T08:53:39.230Z,56.80
2017-09-03T08:56:06.740Z,56.30
2017-09-03T08:58:34.276Z,54.20
2017-09-03T09:01:01.824Z,54.40
2017-09-03T09:03:29.355Z,54.20
2017-09-03T09:05:56.916Z,54.50
2017-09-03T09:08:24.459Z,52.20
2017-09-03T09:10:52.004Z,51.20
2017-09-03T09:13:19.532Z,51.00
2017-09-03T09:15:47.081Z,50.90
2017-09-03T09:18:14.626Z,50.50
2017-09-03T09:20:42.138Z,48.80
2017-09-03T09:23:09.685Z,46.50
2017-09-03T09:25:37.207Z,45.00
2017-09-03T09:28:04.768Z,44.20
2017-09-03T09:30:32.278Z,46.90
2017-09-03T09:32:59.832Z,46.00
2017-09-03T09:35:27.345Z,43.40
2017-09-03T09:37:54.876Z,44.90
2017-09-03T09:40:22.411Z,42.80
2017-09-03T09:42:49.936Z,43.30
2017-09-03T09:45:17.453Z,43.40
2017-09-03T09:47:44.993Z,42.90
2017-09-03T09:50:12.675Z,43.70
2017-09-03T09:52:40.216Z,45.10
2017-09-03T09:55:07.746Z,41.70
2017-09-03T09:57:35.260Z,40.90
2017-09-03T10:00:02.826Z,41.90
2017-09-03T10:02:31.171Z,41.90
2017-09-03T10:04:58.708Z,40.20
2017-09-03T10:07:26.234Z,41.50
2017-09-03T10:09:53.763Z,41.20
2017-09-03T10:12:21.286Z,39.60
2017-09-03T10:14:48.833Z,39.50
2017-09-03T10:17:16.357Z,38.40
2017-09-03T10:19:43.884Z,36.50
2017-09-03T10:22:11.404Z,35.10
2017-09-03T10:24:38.929Z,35.10
2017-09-03T10:27:06.450Z,34.30
2017-09-03T10:29:33.969Z,32.30
2017-09-03T10:32:01.505Z,31.60
2017-09-03T10:34:29.036Z,34.10
2017-09-03T10:36:56.577Z,34.50
2017-09-03T10:39:24.098Z,30.50
2017-09-03T10:41:51.657Z,30.00
2017-09-03T10:44:19.169Z,25.30
2017-09-03T10:46:46.702Z,25.60
2017-09-03T10:49:14.219Z,27.20
2017-09-03T10:51:41.761Z,27.00
2017-09-03T10:54:09.281Z,26.40
2017-09-03T10:56:36.808Z,27.30
2017-09-03T10:59:04.317Z,27.30
2017-09-03T11:01:31.876Z,28.80
2017-09-03T11:03:59.426Z,29.60
2017-09-03T11:06:26.965Z,30.80
2017-09-03T11:08:54.485Z,31.80
2017-09-03T11:11:22.031Z,35.10
2017-09-03T11:13:49.554Z,37.80
2017-09-03T11:16:17.101Z,37.20
2017-09-03T11:18:44.612Z,40.20
2017-09-03T11:21:12.142Z,38.10
2017-09-03T11:23:39.692Z,37.30
2017-09-03T11:26:07.243Z,37.80
2017-09-03T11:28:34.771Z,40.00
2017-09-03T11:31:02.282Z,29.80
2017-09-03T11:33:29.856Z,30.60
2017-09-03T11:35:57.377Z,33.40
2017-09-03T11:38:24.913Z,31.20
2017-09-03T11:40:52.425Z,33.70
2017-09-03T11:43:19.968Z,34.30
2017-09-03T11:45:47.489Z,35.50
2017-09-03T11:48:15.061Z,38.10
2017-09-03T11:50:42.575Z,36.30
2017-09-03T11:53:10.108Z,38.30
2017-09-03T11:55:37.616Z,38.60
2017-09-03T11:58:05.144Z,40.10
2017-09-03T12:00:32.657Z,38.20
2017-09-03T12:03:00.186Z,37.70
2017-09-03T12:05:28.545Z,38.20
2017-09-03T12:07:56.850Z,33.20
2017-09-03T12:10:24.384Z,33.10
2017-09-03T12:12:51.917Z,30.80
2017-09-03T12:15:19.434Z,28.60
2017-09-03T12:17:46.969Z,28.30
2017-09-03T12:20:14.495Z,26.60
2017-09-03T12:22:42.036Z,25.90
2017-09-03T12:25:09.550Z,25.60
2017-09-03T12:27:37.081Z,25.90
2017-09-03T12:30:04.621Z,25.50
2017-09-03T12:32:32.152Z,26.80
2017-09-03T12:34:59.701Z,27.80
2017-09-03T12:37:27.222Z,29.60
2017-09-03T12:39:55.525Z,31.80
2017-09-03T12:42:23.035Z,31.80
2017-09-03T12:44:50.563Z,34.40
2017-09-03T12:47:18.116Z,35.70
2017-09-03T12:49:45.648Z,34.90
2017-09-03T12:52:13.185Z,35.30
2017-09-03T12:54:40.720Z,33.30
2017-09-03T12:57:08.236Z,36.50
2017-09-03T12:59:35.761Z,36.10
2017-09-03T13:02:03.281Z,37.60
2017-09-03T13:04:30.812Z,37.80
2017-09-03T13:06:58.326Z,39.70
2017-09-03T13:09:25.868Z,39.50
2017-09-03T13:11:53.389Z,37.60
2017-09-03T13:14:20.932Z,36.70
2017-09-03T13:16:48.441Z,37.40
2017-09-03T13:19:15.970Z,35.60
